createdAt,value
2022-10-17T00:01:43.583Z,4.41
2022-10-17T00:04:28.802Z,4.36
2022-10-17T00:07:13.408Z,4.27
2022-10-17T00:09:58.432Z,4.21
2022-10-17T00:12:43.320Z,4.15
2022-10-17T00:15:28.540Z,4.07
2022-10-17T00:18:13.256Z,3.99
2022-10-17T00:20:58.198Z,3.95
2022-10-17T00:23:43.563Z,3.90
2022-10-17T00:26:29.136Z,3.87
2022-10-17T00:29:13.855Z,3.81
2022-10-17T00:31:58.861Z,3.76
2022-10-17T00:34:44.181Z,3.73
2022-10-17T00:37:31.109Z,3.73
2022-10-17T00:40:15.986Z,3.68
2022-10-17T00:43:00.848Z,3.66
2022-10-17T00:45:45.798Z,3.65
2022-10-17T00:48:30.799Z,3.68
2022-10-17T00:51:18.388Z,3.76
2022-10-17T00:54:04.464Z,3.78
2022-10-17T00:56:49.787Z,3.78
2022-10-17T00:59:37.546Z,3.77
2022-10-17T01:02:22.981Z,3.78
2022-10-17T01:05:09.659Z,3.76
2022-10-17T01:07:56.059Z,3.72
2022-10-17T01:11:00.994Z,3.75
2022-10-17T01:14:02.251Z,3.74
2022-10-17T01:17:11.187Z,3.73
2022-10-17T01:20:06.514Z,3.73
2022-10-17T01:23:26.998Z,3.71
2022-10-17T01:26:22.399Z,3.68
2022-10-17T01:29:35.870Z,3.68
2022-10-17T01:32:50.026Z,3.64
2022-10-17T01:35:46.515Z,3.61
2022-10-17T01:38:46.254Z,3.55
2022-10-17T01:41:45.897Z,3.56
2022-10-17T01:44:40.368Z,3.55
2022-10-17T01:47:31.536Z,3.57
2022-10-17T01:50:28.050Z,3.59
2022-10-17T01:53:26.395Z,3.61
2022-10-17T01:56:14.042Z,3.65
2022-10-17T01:59:18.888Z,3.66
2022-10-17T02:02:05.864Z,3.65
2022-10-17T02:04:55.286Z,3.65
2022-10-17T02:07:41.424Z,3.64
2022-10-17T02:10:50.306Z,3.67
2022-10-17T02:13:57.003Z,3.68
2022-10-17T02:17:09.500Z,3.68
2022-10-17T02:20:15.946Z,3.67
2022-10-17T02:23:12.189Z,3.65
2022-10-17T02:26:30.499Z,3.64
2022-10-17T02:29:25.743Z,3.62
2022-10-17T02:32:17.344Z,3.56
2022-10-17T02:35:06.996Z,3.53
2022-10-17T02:37:52.904Z,3.49
2022-10-17T02:40:40.710Z,3.45
2022-10-17T02:43:25.748Z,3.41
2022-10-17T02:46:20.188Z,3.41
2022-10-17T02:49:20.506Z,3.42
2022-10-17T02:52:30.302Z,3.43
2022-10-17T02:55:20.595Z,3.42
2022-10-17T02:58:14.357Z,3.42
2022-10-17T03:00:59.946Z,3.42
2022-10-17T03:03:45.562Z,3.41
2022-10-17T03:06:30.759Z,3.42
2022-10-17T03:09:16.055Z,3.44
2022-10-17T03:12:01.465Z,3.42
2022-10-17T03:14:47.290Z,3.44
2022-10-17T03:17:32.342Z,3.44
2022-10-17T03:20:17.692Z,3.42
2022-10-17T03:23:03.430Z,3.41
2022-10-17T03:25:48.477Z,3.40
2022-10-17T03:28:34.639Z,3.45
2022-10-17T03:31:19.351Z,3.42
2022-10-17T03:34:05.426Z,3.42
2022-10-17T03:36:50.411Z,3.43
2022-10-17T03:39:36.405Z,3.41
2022-10-17T03:42:21.393Z,3.41
2022-10-17T03:45:07.093Z,3.41
2022-10-17T03:47:52.523Z,3.38
2022-10-17T03:50:37.374Z,3.40
2022-10-17T03:53:22.353Z,3.41
2022-10-17T03:56:19.249Z,3.43
2022-10-17T03:59:15.392Z,3.39
2022-10-17T04:02:04.036Z,3.36
2022-10-17T04:04:49.315Z,3.35
2022-10-17T04:07:34.076Z,3.33
2022-10-17T04:10:19.203Z,3.32
2022-10-17T04:13:05.941Z,3.30
2022-10-17T04:16:06.473Z,3.29
2022-10-17T04:18:56.348Z,3.28
2022-10-17T04:21:43.277Z,3.26
2022-10-17T04:24:28.401Z,3.28
2022-10-17T04:27:25.587Z,3.28
2022-10-17T04:30:11.478Z,3.35
2022-10-17T04:32:56.631Z,3.36
2022-10-17T04:35:41.444Z,3.41
2022-10-17T04:38:28.754Z,3.40
2022-10-17T04:41:16.657Z,3.43
2022-10-17T04:44:01.997Z,3.48
2022-10-17T04:46:49.906Z,3.50
2022-10-17T04:49:35.009Z,3.54
2022-10-17T04:52:28.329Z,3.59
2022-10-17T04:55:13.437Z,3.62
2022-10-17T04:57:58.442Z,3.73
2022-10-17T05:00:43.464Z,3.80
2022-10-17T05:03:38.060Z,3.87
2022-10-17T05:06:24.857Z,4.00
2022-10-17T05:09:32.629Z,4.11
2022-10-17T05:12:17.672Z,4.24
2022-10-17T05:15:04.170Z,4.41
2022-10-17T05:17:54.472Z,4.59
2022-10-17T05:20:40.034Z,4.76
2022-10-17T05:23:24.932Z,4.93
2022-10-17T05:26:13.801Z,5.12
2022-10-17T05:29:02.639Z,5.29
2022-10-17T05:31:49.882Z,5.46
2022-10-17T05:34:37.500Z,5.64
2022-10-17T05:37:22.776Z,5.87
2022-10-17T05:40:10.577Z,6.09
2022-10-17T05:42:55.688Z,6.28
2022-10-17T05:45:42.258Z,6.46
2022-10-17T05:48:32.248Z,6.69
2022-10-17T05:51:18.447Z,6.86
2022-10-17T05:54:05.837Z,7.08
2022-10-17T05:56:55.463Z,7.29
2022-10-17T05:59:44.016Z,7.49
2022-10-17T06:02:32.018Z,7.73
2022-10-17T06:05:17.723Z,7.80
2022-10-17T06:08:02.822Z,7.93
2022-10-17T06:10:52.197Z,8.07
2022-10-17T06:13:38.586Z,8.29
2022-10-17T06:16:29.139Z,8.51
2022-10-17T06:19:14.230Z,8.74
2022-10-17T06:21:59.410Z,8.87
2022-10-17T06:24:45.964Z,9.04
2022-10-17T06:27:33.327Z,9.22
2022-10-17T06:30:18.388Z,9.27
2022-10-17T06:33:03.584Z,9.40
2022-10-17T06:35:54.521Z,9.71
2022-10-17T06:38:41.528Z,9.98
2022-10-17T06:41:34.458Z,10.22
2022-10-17T06:44:28.058Z,10.40
2022-10-17T06:47:29.092Z,10.64
2022-10-17T06:50:19.088Z,10.85
2022-10-17T06:53:15.547Z,11.21
2022-10-17T06:56:07.813Z,11.27
2022-10-17T06:59:06.197Z,11.41
2022-10-17T07:01:55.178Z,11.46
2022-10-17T07:04:42.311Z,11.38
2022-10-17T07:07:32.150Z,11.64
2022-10-17T07:10:17.346Z,11.98
2022-10-17T07:13:03.397Z,12.21
2022-10-17T07:15:51.748Z,12.30
2022-10-17T07:18:41.869Z,12.62
2022-10-17T07:21:39.187Z,13.04
2022-10-17T07:24:27.085Z,13.28
2022-10-17T07:27:22.546Z,13.59
2022-10-17T07:30:08.656Z,13.77
2022-10-17T07:33:05.892Z,13.91
2022-10-17T07:35:52.676Z,13.52
2022-10-17T07:38:41.663Z,13.86
2022-10-17T07:41:53.836Z,13.98
2022-10-17T07:45:20.943Z,13.95
2022-10-17T07:52:02.470Z,14.19
2022-10-17T07:55:09.114Z,14.32
2022-10-17T07:58:05.849Z,14.60
2022-10-17T08:01:19.832Z,14.63
2022-10-17T08:04:04.937Z,14.83
2022-10-17T08:06:53.412Z,14.88
2022-10-17T08:09:43.765Z,15.29
2022-10-17T08:15:33.665Z,15.91
2022-10-17T08:18:18.993Z,16.12
2022-10-17T08:21:09.214Z,16.02
2022-10-17T08:23:54.264Z,16.17
2022-10-17T08:27:00.227Z,16.16
2022-10-17T08:29:53.726Z,15.92
2022-10-17T08:32:44.475Z,15.94
2022-10-17T08:35:29.620Z,16.56
2022-10-17T08:38:18.877Z,16.61
2022-10-17T08:41:35.170Z,16.81
2022-10-17T08:44:27.186Z,17.30
2022-10-17T08:47:41.925Z,17.31
2022-10-17T08:50:51.943Z,17.51
2022-10-17T08:54:02.203Z,17.52
2022-10-17T08:56:54.131Z,17.87
2022-10-17T08:59:39.477Z,18.04
2022-10-17T09:02:30.996Z,18.41
2022-10-17T09:05:29.913Z,18.80
2022-10-17T09:08:24.873Z,18.40
2022-10-17T09:11:36.994Z,18.37
2022-10-17T09:14:38.155Z,18.27
2022-10-17T09:17:52.362Z,18.16
2022-10-17T09:20:53.922Z,18.43
2022-10-17T09:23:53.222Z,18.69
2022-10-17T09:26:47.012Z,18.86
2022-10-17T09:29:43.584Z,18.88
2022-10-17T09:32:29.458Z,19.14
2022-10-17T09:35:15.202Z,19.48
2022-10-17T09:38:01.674Z,19.65
2022-10-17T09:40:57.969Z,19.60
2022-10-17T09:43:43.203Z,19.58
2022-10-17T09:46:36.239Z,19.84
2022-10-17T09:49:39.511Z,20.08
2022-10-17T09:52:35.692Z,20.55
2022-10-17T09:55:39.784Z,20.56
2022-10-17T09:58:45.723Z,20.06
2022-10-17T10:01:31.241Z,19.98
2022-10-17T10:04:27.634Z,20.24
2022-10-17T10:07:17.590Z,20.19
2022-10-17T10:10:05.863Z,20.61
2022-10-17T10:13:22.120Z,20.15
2022-10-17T10:16:21.587Z,20.41
2022-10-17T10:19:29.391Z,20.52
2022-10-17T10:22:16.917Z,21.16
2022-10-17T10:25:15.833Z,20.90
2022-10-17T10:28:01.619Z,20.70
2022-10-17T10:30:53.319Z,20.77
2022-10-17T10:33:45.921Z,21.10
2022-10-17T10:36:48.382Z,20.94
2022-10-17T10:39:39.039Z,20.50
2022-10-17T10:42:37.346Z,19.93
2022-10-17T10:45:49.441Z,19.26
2022-10-17T10:48:36.448Z,19.23
2022-10-17T10:51:40.040Z,20.00
2022-10-17T10:54:35.358Z,21.00
2022-10-17T10:57:23.224Z,21.46
2022-10-17T11:00:12.026Z,21.58
2022-10-17T11:03:51.428Z,21.59
2022-10-17T11:06:44.591Z,21.90
2022-10-17T11:10:51.165Z,22.23
2022-10-17T11:14:09.657Z,21.95
2022-10-17T11:17:19.596Z,22.25
2022-10-17T11:20:07.335Z,22.23
2022-10-17T11:22:58.409Z,22.21
2022-10-17T11:25:43.656Z,22.30
2022-10-17T11:28:31.358Z,22.29
2022-10-17T11:31:45.970Z,22.30
2022-10-17T11:34:39.203Z,22.16
2022-10-17T11:37:29.772Z,22.18
2022-10-17T11:40:25.150Z,22.29
2022-10-17T11:43:23.005Z,22.47
2022-10-17T11:46:19.655Z,22.64
2022-10-17T11:49:19.804Z,22.88
2022-10-17T11:52:44.080Z,22.87
2022-10-17T11:55:30.583Z,22.77
2022-10-17T11:58:36.400Z,22.52
2022-10-17T12:01:29.985Z,22.51
2022-10-17T12:04:41.337Z,22.36
2022-10-17T12:07:53.034Z,22.29
2022-10-17T12:11:03.567Z,22.13
2022-10-17T12:13:51.345Z,22.48
2022-10-17T12:16:38.399Z,22.35
2022-10-17T12:19:25.952Z,22.53
2022-10-17T12:22:28.212Z,22.82
2022-10-17T12:25:23.072Z,22.95
2022-10-17T12:28:29.675Z,22.95
2022-10-17T12:31:18.512Z,22.81
2022-10-17T12:34:05.435Z,22.83
2022-10-17T12:36:50.257Z,22.70
2022-10-17T12:39:35.103Z,22.51
2022-10-17T12:42:31.916Z,21.94
2022-10-17T12:45:57.124Z,21.85
2022-10-17T12:48:41.908Z,22.09
2022-10-17T12:51:37.632Z,22.22
2022-10-17T12:54:23.801Z,22.19
2022-10-17T12:57:35.253Z,22.05
2022-10-17T13:00:23.189Z,22.08
2022-10-17T13:03:13.665Z,21.97
2022-10-17T13:06:06.101Z,21.92
2022-10-17T13:09:03.841Z,21.80
2022-10-17T13:11:50.469Z,21.67
2022-10-17T13:14:40.533Z,21.55
2022-10-17T13:17:28.862Z,21.57
2022-10-17T13:20:25.461Z,21.48
2022-10-17T13:23:30.224Z,21.53
2022-10-17T13:26:19.653Z,21.60
2022-10-17T13:29:06.178Z,21.56
2022-10-17T13:32:00.493Z,21.44
2022-10-17T13:34:45.276Z,21.46
2022-10-17T13:37:30.298Z,21.40
2022-10-17T13:40:50.964Z,21.36
2022-10-17T13:43:26.696Z,21.34
2022-10-17T13:46:37.847Z,21.43
2022-10-17T13:49:36.836Z,21.38
2022-10-17T13:52:24.638Z,21.28
2022-10-17T13:55:17.529Z,21.06
2022-10-17T13:58:16.698Z,20.85
2022-10-17T14:01:02.083Z,20.64
2022-10-17T14:03:49.788Z,20.41
2022-10-17T14:06:49.501Z,20.23
2022-10-17T14:09:36.013Z,19.98
2022-10-17T14:12:21.944Z,19.65
2022-10-17T14:15:14.563Z,19.38
2022-10-17T14:18:07.352Z,19.15
2022-10-17T14:24:13.767Z,18.88
2022-10-17T14:27:00.025Z,18.74
2022-10-17T14:29:53.113Z,18.58
2022-10-17T14:32:37.823Z,18.45
2022-10-17T14:35:41.212Z,18.29
2022-10-17T14:38:29.119Z,18.11
2022-10-17T14:41:44.737Z,17.94
2022-10-17T14:44:35.366Z,17.72
2022-10-17T14:47:43.280Z,17.52
2022-10-17T14:50:31.481Z,17.26
2022-10-17T14:53:16.610Z,17.04
2022-10-17T14:56:05.505Z,16.78
2022-10-17T14:58:51.510Z,16.54
2022-10-17T15:01:36.159Z,16.30
2022-10-17T15:04:21.098Z,16.02
2022-10-17T15:07:05.986Z,15.78
2022-10-17T15:09:53.112Z,15.60
2022-10-17T15:12:37.952Z,15.41
2022-10-17T15:15:22.962Z,15.18
2022-10-17T15:18:11.243Z,14.96
2022-10-17T15:21:05.056Z,14.73
2022-10-17T15:23:51.815Z,14.48
2022-10-17T15:26:37.033Z,14.29
2022-10-17T15:29:21.612Z,14.16
2022-10-17T15:32:06.474Z,14.05
2022-10-17T15:34:51.634Z,13.91
2022-10-17T15:37:36.604Z,13.80
2022-10-17T15:40:24.572Z,13.64
2022-10-17T15:43:09.606Z,13.59
2022-10-17T15:45:54.352Z,13.50
2022-10-17T15:48:40.449Z,13.40
2022-10-17T15:51:25.370Z,13.31
2022-10-17T15:54:10.339Z,13.28
2022-10-17T15:56:55.625Z,13.23
2022-10-17T15:59:40.696Z,13.16
2022-10-17T16:02:26.202Z,13.10
2022-10-17T16:05:18.643Z,13.07
2022-10-17T16:08:03.720Z,13.01
2022-10-17T16:10:49.176Z,12.95
2022-10-17T16:13:33.807Z,12.92
2022-10-17T16:16:20.142Z,12.87
2022-10-17T16:19:05.178Z,12.81
2022-10-17T16:21:50.181Z,12.74
2022-10-17T16:24:35.064Z,12.69
2022-10-17T16:27:19.940Z,12.65
2022-10-17T16:30:06.872Z,12.60
2022-10-17T16:32:52.799Z,12.57
2022-10-17T16:35:38.080Z,12.46
2022-10-17T16:38:22.778Z,12.39
2022-10-17T16:41:21.113Z,12.29
2022-10-17T16:44:15.866Z,12.20
2022-10-17T16:47:00.850Z,12.17
2022-10-17T16:49:45.993Z,12.09
2022-10-17T16:52:30.991Z,12.05
2022-10-17T16:55:18.398Z,12.05
2022-10-17T16:58:03.051Z,11.98
2022-10-17T17:00:48.253Z,11.93
2022-10-17T17:03:41.896Z,11.87
2022-10-17T17:06:28.561Z,11.82
2022-10-17T17:09:13.726Z,11.79
2022-10-17T17:11:58.970Z,11.72
2022-10-17T17:14:43.889Z,11.69
2022-10-17T17:17:44.341Z,11.64
2022-10-17T17:20:33.850Z,11.62
2022-10-17T17:23:18.608Z,11.60
2022-10-17T17:26:11.509Z,11.57
2022-10-17T17:28:58.679Z,11.53
2022-10-17T17:31:43.836Z,11.47
2022-10-17T17:34:28.814Z,11.43
2022-10-17T17:37:13.879Z,11.36
2022-10-17T17:39:58.901Z,11.34
2022-10-17T17:42:43.899Z,11.33
2022-10-17T17:45:28.807Z,11.30
2022-10-17T17:48:14.066Z,11.27
2022-10-17T17:51:04.098Z,11.29
2022-10-17T17:53:49.467Z,11.27
2022-10-17T17:56:35.049Z,11.25
2022-10-17T17:59:19.740Z,11.20
2022-10-17T18:02:06.225Z,11.16
2022-10-17T18:04:51.343Z,11.14
2022-10-17T18:07:37.182Z,11.10
2022-10-17T18:10:21.909Z,11.08
2022-10-17T18:13:06.762Z,11.07
2022-10-17T18:15:57.461Z,11.01
2022-10-17T18:18:44.430Z,10.98
2022-10-17T18:21:29.094Z,10.94
2022-10-17T18:24:14.051Z,10.94
2022-10-17T18:26:59.375Z,10.91
2022-10-17T18:29:47.631Z,10.91
2022-10-17T18:32:32.716Z,10.85
2022-10-17T18:35:17.723Z,10.86
2022-10-17T18:38:02.756Z,10.85
2022-10-17T18:40:50.021Z,10.83
2022-10-17T18:43:37.755Z,10.87
2022-10-17T18:46:26.137Z,10.90
2022-10-17T18:49:15.700Z,10.87
2022-10-17T18:52:00.723Z,10.83
2022-10-17T18:54:45.579Z,10.81
2022-10-17T18:57:30.753Z,10.74
2022-10-17T19:00:16.782Z,10.69
2022-10-17T19:03:03.619Z,10.58
2022-10-17T19:05:48.458Z,10.50
2022-10-17T19:08:35.715Z,10.43
2022-10-17T19:11:25.723Z,10.36
2022-10-17T19:14:14.528Z,10.29
2022-10-17T19:16:59.468Z,10.22
2022-10-17T19:19:44.735Z,10.18
2022-10-17T19:22:30.694Z,10.16
2022-10-17T19:25:15.393Z,10.12
2022-10-17T19:28:00.373Z,10.10
2022-10-17T19:30:45.296Z,10.07
2022-10-17T19:33:31.767Z,10.10
2022-10-17T19:36:17.061Z,10.15
2022-10-17T19:39:04.949Z,10.21
2022-10-17T19:41:49.705Z,10.26
2022-10-17T19:44:34.988Z,10.28
2022-10-17T19:47:19.825Z,10.31
2022-10-17T19:50:05.847Z,10.30
2022-10-17T19:52:51.535Z,10.29
2022-10-17T19:55:36.215Z,10.25
2022-10-17T19:58:21.334Z,10.22
2022-10-17T20:01:06.337Z,10.18
2022-10-17T20:03:51.889Z,10.14
2022-10-17T20:06:37.411Z,10.07
2022-10-17T20:09:24.507Z,10.03
2022-10-17T20:12:09.334Z,9.96
2022-10-17T20:14:54.266Z,9.93
2022-10-17T20:17:39.382Z,9.87
2022-10-17T20:20:24.932Z,9.84
2022-10-17T20:23:09.883Z,9.79
2022-10-17T20:26:08.671Z,9.76
2022-10-17T20:29:10.091Z,9.71
2022-10-17T20:31:56.125Z,9.66
2022-10-17T20:34:40.976Z,9.64
2022-10-17T20:37:26.513Z,9.60
2022-10-17T20:43:16.900Z,9.54
2022-10-17T20:46:15.584Z,9.47
2022-10-17T20:49:08.123Z,9.47
2022-10-17T20:51:52.901Z,9.45
2022-10-17T20:54:37.951Z,9.47
2022-10-17T20:57:22.779Z,9.46
2022-10-17T21:00:08.549Z,9.49
2022-10-17T21:02:53.324Z,9.51
2022-10-17T21:05:39.311Z,9.56
2022-10-17T21:08:24.309Z,9.58
2022-10-17T21:11:12.224Z,9.59
2022-10-17T21:14:02.152Z,9.56
2022-10-17T21:16:47.941Z,9.54
2022-10-17T21:19:33.166Z,9.49
2022-10-17T21:22:19.366Z,9.43
2022-10-17T21:25:05.224Z,9.37
2022-10-17T21:27:51.940Z,9.28
2022-10-17T21:30:36.705Z,9.21
2022-10-17T21:33:21.463Z,9.21
2022-10-17T21:36:07.511Z,9.20
2022-10-17T21:38:53.722Z,9.17
2022-10-17T21:41:38.983Z,9.16
2022-10-17T21:44:25.217Z,9.10
2022-10-17T21:47:10.025Z,9.09
2022-10-17T21:49:55.521Z,9.06
2022-10-17T21:52:40.485Z,9.06
2022-10-17T21:55:25.434Z,9.01
2022-10-17T21:58:10.542Z,8.99
2022-10-17T22:01:13.639Z,9.01
2022-10-17T22:04:01.247Z,8.99
2022-10-17T22:06:50.444Z,8.96
2022-10-17T22:09:35.301Z,8.94
2022-10-17T22:12:20.195Z,8.94
2022-10-17T22:15:05.971Z,8.96
2022-10-17T22:17:50.740Z,8.98
2022-10-17T22:20:35.763Z,9.01
2022-10-17T22:23:20.700Z,9.04
2022-10-17T22:26:06.287Z,9.10
2022-10-17T22:28:51.342Z,9.11
2022-10-17T22:31:37.261Z,9.16
2022-10-17T22:34:22.107Z,9.16
2022-10-17T22:37:07.223Z,9.12
2022-10-17T22:39:52.313Z,9.07
2022-10-17T22:42:37.230Z,9.04
2022-10-17T22:45:22.220Z,8.98
2022-10-17T22:48:08.146Z,8.97
2022-10-17T22:50:54.183Z,8.94
2022-10-17T22:53:39.289Z,8.88
2022-10-17T22:56:23.931Z,8.82
2022-10-17T22:59:08.854Z,8.76
2022-10-17T23:01:53.727Z,8.65
2022-10-17T23:04:38.646Z,8.55
2022-10-17T23:07:23.737Z,8.47
2022-10-17T23:10:08.984Z,8.43
2022-10-17T23:12:54.119Z,8.39
2022-10-17T23:15:39.450Z,8.35
2022-10-17T23:18:26.545Z,8.31
2022-10-17T23:21:12.014Z,8.22
2022-10-17T23:23:56.895Z,8.16
2022-10-17T23:26:41.934Z,8.17
2022-10-17T23:29:32.013Z,8.19
2022-10-17T23:32:19.517Z,8.21
2022-10-17T23:35:05.446Z,8.23
2022-10-17T23:37:50.286Z,8.24
2022-10-17T23:40:35.426Z,8.26
2022-10-17T23:43:20.332Z,8.27
2022-10-17T23:46:06.228Z,8.29
2022-10-17T23:48:50.967Z,8.30
2022-10-17T23:51:35.884Z,8.29
2022-10-17T23:54:20.888Z,8.27
2022-10-17T23:57:05.768Z,8.29
2022-10-17T23:59:50.763Z,8.25
